This is the latest recevied weather packets stored in our database for station/object KO4YAW. If no packets are shown the sender has not sent any weather packets the latest 10 day(s).
| Time | Temp. | Humidity | Pressure | Rain* | Wind** | Luminosity | Snow |
|---|---|---|---|---|---|---|---|
| 1788308321 | 29.44° C | 26% | 1017.9 hPa | 0 mm | - | 43 W/m² | - |
| 1788307421 | 30° C | 25% | 1017.8 hPa | 0 mm | - | 213 W/m² | - |
| 1788306521 | 30.56° C | 25% | 1017.8 hPa | 0 mm | - | 255 W/m² | - |
| 1788305621 | 30° C | 25% | 1017.7 hPa | 0 mm | - | 346 W/m² | - |
| 1788304721 | 30° C | 24% | 1017.8 hPa | 0 mm | - | 425 W/m² | - |
| 1788303821 | 30.56° C | 23% | 1017.8 hPa | 0 mm | - | 139 W/m² | - |
| 1788302921 | 32.22° C | 23% | 1017.9 hPa | 0 mm | - | 110 W/m² | - |
| 1788302021 | 31.67° C | 22% | 1017.8 hPa | 0 mm | - | 557 W/m² | - |
| 1788301121 | 31.67° C | 22% | 1017.9 hPa | 0 mm | - | 664 W/m² | - |
| 1788300221 | 32.22° C | 22% | 1018 hPa | 0 mm | - | 807 W/m² | - |
| 1788299321 | 31.67° C | 23% | 1018.2 hPa | 0 mm | - | 351 W/m² | - |
| 1788298421 | 31.67° C | 23% | 1018.3 hPa | 0 mm | - | 464 W/m² | - |
| 1788297521 | 30.56° C | 24% | 1018.5 hPa | 0 mm | - | 842 W/m² | - |
| 1788296621 | 30.56° C | 25% | 1018.6 hPa | 0 mm | - | 847 W/m² | - |
| 1788295721 | 30.56° C | 24% | 1018.9 hPa | 0 mm | - | 900 W/m² | - |
| 1788294821 | 30° C | 25% | 1019.1 hPa | 0 mm | - | 231 W/m² | - |
| 1788293921 | 31.11° C | 23% | 1019 hPa | 0 mm | - | 987 W/m² | - |
| 1788293021 | 31.11° C | 24% | 1019.1 hPa | 0 mm | - | 971 W/m² | - |
| 1788292121 | 30° C | 24% | 1019.2 hPa | 0 mm | - | 964 W/m² | - |
| 1788291221 | 28.89° C | 26% | 1019.3 hPa | 0 mm | - | 949 W/m² | - |
| 1788290321 | 28.33° C | 26% | 1019.6 hPa | 0 mm | - | 387 W/m² | - |
| 1788289421 | 27.78° C | 30% | 1019.7 hPa | 0 mm | - | 305 W/m² | - |
| 1788288521 | 27.78° C | 31% | 1020.1 hPa | 0 mm | - | 189 W/m² | - |
| 1788287621 | 27.22° C | 34% | 1020.3 hPa | 0 mm | - | 93 W/m² | - |
| 1788286721 | 26.67° C | 35% | 1020.4 hPa | 0 mm | - | 692 W/m² | - |
* Rain since midnight (hover to see other rain measurements)
** Current wind speed in m/s (hover to see current wind gust speed)